ZA-0151 weather

Leeukop Farm Airfield
Free State, South Africa

Public forecast

Using degrees Celsius for public forecast. Weather courtesy of forecast.io.

Closest aviation weather report (METAR) to Leeukop Farm Airfield

Report is more than 6 hours old.

Closest report is Saffier Airport, 18.1 nm (33.6 km) WNW. Retrieved 2010/02/14 18:00 UTC (10 years ago):

FASJ 141800Z 07007KT CAVOK 19/15 Q1025

Closest aviation forecast (TAF) to Leeukop Farm Airfield

Closest forecast is OR Tambo International Airport, 44.7 nm (82.8 km) NNE. Retrieved 2020/02/17 12:00 UTC (3 hours ago):

TAF FAOR 171000Z 1712/1818 23008KT 9999 BKN035 TX28/1713Z TN18/1804Z PROB30 TEMPO 1712/1715 FEW040TCU BECMG 1716/1718 VRB03KT CAVOK BECMG 1719/1721 09014KT BECMG 1800/1802 BKN008 BECMG 1804/1806 BKN015 BECMG 1807/1809 03009KT BKN025 PROB40 TEMPO 1810/1813 FEW035TCU PROB40 TEMPO 1813/1818 -TSRA FEW030CB